Time;durP1;ratioP1;P1;durP2;ratioP2;P2;SDS_P1;SDS_P2;PMS_P1;PMS_P2;Temp;Humidity;BMP_temperature;BMP_pressure;BME280_temperature;BME280_humidity;BME280_pressure;Samples;Min_cycle;Max_cycle;Signal;HPM_P1;HPM_P2
2022/11/07 00:01:36;;;;;;;12.95;9.52;;;;;;;;;;5013110;28;20478;-75
2022/11/07 00:04:03;;;;;;;16.20;10.10;;;;;;;;;;5014031;28;20033;-76
2022/11/07 00:06:29;;;;;;;18.40;11.63;;;;;;;;;;5013536;28;20108;-76
2022/11/07 00:08:54;;;;;;;12.75;10.10;;;;;;;;;;5013785;28;20102;-75
2022/11/07 00:11:22;;;;;;;15.30;10.35;;;;;;;;;;5013316;28;20393;-74
2022/11/07 00:13:47;;;;;;;13.40;9.73;;;;;;;;;;5013314;28;20520;-76
2022/11/07 00:16:13;;;;;;;13.65;10.18;;;;;;;;;;5012423;28;20026;-75
2022/11/07 00:18:38;;;;;;;16.13;10.45;;;;;;;;;;5012307;28;20022;-74
2022/11/07 00:21:05;;;;;;;15.80;11.13;;;;;;;;;;5013272;28;20505;-74
2022/11/07 00:23:30;;;;;;;18.05;11.57;;;;;;;;;;5011980;28;20497;-74
2022/11/07 00:26:06;;;;;;;17.05;12.45;;;;;;;;;;5013081;28;20022;-74
2022/11/07 00:28:35;;;;;;;17.48;11.73;;;;;;;;;;5013091;28;20076;-76
2022/11/07 00:31:00;;;;;;;20.13;12.25;;;;;;;;;;5012612;28;20080;-76
2022/11/07 00:33:26;;;;;;;16.23;11.98;;;;;;;;;;5012947;28;20042;-76
2022/11/07 00:35:51;;;;;;;15.18;10.80;;;;;;;;;;5012568;28;20474;-77
2022/11/07 00:38:16;;;;;;;17.00;12.20;;;;;;;;;;5011294;28;20046;-77
2022/11/07 00:40:42;;;;;;;12.77;9.32;;;;;;;;;;4994518;28;20036;-76
2022/11/07 00:43:08;;;;;;;14.57;9.85;;;;;;;;;;4993897;28;20863;-76
2022/11/07 00:45:34;;;;;;;11.60;9.48;;;;;;;;;;5012678;28;20478;-76
2022/11/07 00:48:00;;;;;;;14.05;10.43;;;;;;;;;;5012307;28;20033;-75
2022/11/07 00:50:25;;;;;;;14.88;10.30;;;;;;;;;;5010943;28;20482;-77
2022/11/07 00:52:50;;;;;;;14.77;9.70;;;;;;;;;;5010640;28;20038;-77
2022/11/07 00:55:16;;;;;;;12.07;9.52;;;;;;;;;;5012196;28;20081;-77
2022/11/07 00:57:41;;;;;;;11.93;9.00;;;;;;;;;;5011946;28;20022;-77
2022/11/07 01:00:07;;;;;;;12.38;8.93;;;;;;;;;;5012444;28;20373;-77
2022/11/07 01:02:32;;;;;;;13.93;9.70;;;;;;;;;;5012276;28;20034;-76
2022/11/07 01:05:10;;;;;;;11.35;9.18;;;;;;;;;;4994483;28;20029;-77
2022/11/07 01:07:36;;;;;;;12.32;9.50;;;;;;;;;;5011964;28;20022;-77
2022/11/07 01:10:02;;;;;;;13.40;9.70;;;;;;;;;;5012284;28;20017;-76
2022/11/07 01:12:27;;;;;;;12.50;9.52;;;;;;;;;;5012522;28;20400;-77
2022/11/07 01:14:52;;;;;;;13.88;9.70;;;;;;;;;;5025436;28;20030;-76
2022/11/07 01:17:18;;;;;;;10.40;8.90;;;;;;;;;;5030713;28;20048;-76
2022/11/07 01:19:45;;;;;;;9.15;8.10;;;;;;;;;;5031990;28;20028;-78
2022/11/07 01:22:11;;;;;;;12.77;8.98;;;;;;;;;;5030447;28;20072;-76
2022/11/07 01:24:36;;;;;;;12.43;8.45;;;;;;;;;;5030247;28;20061;-75
2022/11/07 01:27:01;;;;;;;13.45;9.60;;;;;;;;;;5032672;28;20076;-76
2022/11/07 01:29:28;;;;;;;12.93;9.40;;;;;;;;;;5031649;28;20045;-76
2022/11/07 01:31:53;;;;;;;14.10;9.60;;;;;;;;;;5030884;28;20025;-76
2022/11/07 01:34:19;;;;;;;14.82;10.32;;;;;;;;;;5031531;28;20095;-74
2022/11/07 01:36:44;;;;;;;11.43;9.00;;;;;;;;;;5030690;28;20030;-74
2022/11/07 01:39:10;;;;;;;14.43;9.30;;;;;;;;;;5032135;28;20446;-74
2022/11/07 01:41:36;;;;;;;12.93;9.05;;;;;;;;;;5031773;28;20025;-74
2022/11/07 01:44:07;;;;;;;12.75;9.30;;;;;;;;;;5031793;28;20026;-74
2022/11/07 01:46:43;;;;;;;12.85;9.25;;;;;;;;;;5031894;28;20025;-74
2022/11/07 01:49:16;;;;;;;13.75;9.88;;;;;;;;;;5030787;28;20033;-75
2022/11/07 01:51:48;;;;;;;13.20;9.05;;;;;;;;;;5031363;28;20072;-75
2022/11/07 01:54:15;;;;;;;11.77;9.05;;;;;;;;;;5035315;28;20381;-77
2022/11/07 01:56:42;;;;;;;14.73;9.63;;;;;;;;;;5036761;28;20021;-77
2022/11/07 01:59:09;;;;;;;11.90;9.20;;;;;;;;;;5019403;28;20087;-77
2022/11/07 02:01:34;;;;;;;11.60;8.60;;;;;;;;;;5036822;28;20036;-77
2022/11/07 02:04:00;;;;;;;11.95;8.82;;;;;;;;;;5035164;28;20026;-76
2022/11/07 02:06:38;;;;;;;13.10;9.65;;;;;;;;;;5034721;28;20092;-75
2022/11/07 02:09:03;;;;;;;12.45;9.38;;;;;;;;;;5034523;28;20033;-76
2022/11/07 02:11:29;;;;;;;15.77;10.52;;;;;;;;;;5035464;28;20148;-75
2022/11/07 02:13:55;;;;;;;13.40;9.77;;;;;;;;;;5035986;28;20056;-75
2022/11/07 02:16:20;;;;;;;13.68;9.75;;;;;;;;;;5034540;28;20018;-75
2022/11/07 02:18:46;;;;;;;12.43;9.13;;;;;;;;;;5035870;28;20041;-75
2022/11/07 02:21:17;;;;;;;11.93;9.48;;;;;;;;;;5034423;28;20026;-75
2022/11/07 02:23:53;;;;;;;10.20;8.30;;;;;;;;;;5034040;28;20393;-75
2022/11/07 02:26:19;;;;;;;10.30;8.10;;;;;;;;;;5035627;28;20022;-76
2022/11/07 02:28:45;;;;;;;10.80;8.45;;;;;;;;;;5034543;28;20044;-76
2022/11/07 02:31:10;;;;;;;11.35;8.18;;;;;;;;;;5034552;28;20469;-75
2022/11/07 02:33:36;;;;;;;10.45;7.72;;;;;;;;;;5034452;28;20037;-76
2022/11/07 02:36:03;;;;;;;10.88;8.10;;;;;;;;;;5034519;28;20037;-76
2022/11/07 02:38:30;;;;;;;10.82;7.82;;;;;;;;;;5034267;28;20059;-77
2022/11/07 02:40:58;;;;;;;9.68;8.20;;;;;;;;;;5036047;28;20083;-77
2022/11/07 02:43:25;;;;;;;9.57;7.63;;;;;;;;;;5034438;28;20052;-77
2022/11/07 02:45:52;;;;;;;9.90;7.57;;;;;;;;;;5033747;28;20040;-77
2022/11/07 02:48:17;;;;;;;11.40;8.63;;;;;;;;;;5035407;28;20021;-73
2022/11/07 02:50:43;;;;;;;11.65;8.35;;;;;;;;;;5035013;28;20457;-73
2022/11/07 02:53:08;;;;;;;9.48;8.48;;;;;;;;;;5033441;28;20513;-73
2022/11/07 02:55:34;;;;;;;10.15;8.07;;;;;;;;;;5033103;28;20068;-73
2022/11/07 02:57:59;;;;;;;11.25;8.63;;;;;;;;;;5034575;28;20126;-73
2022/11/07 03:00:25;;;;;;;10.98;8.18;;;;;;;;;;5037153;28;20043;-73
2022/11/07 03:02:50;;;;;;;9.63;7.75;;;;;;;;;;5036130;28;20028;-73
2022/11/07 03:05:17;;;;;;;10.73;7.80;;;;;;;;;;5033548;28;20053;-75
2022/11/07 03:07:43;;;;;;;9.63;7.82;;;;;;;;;;5033844;28;20018;-74
2022/11/07 03:10:09;;;;;;;10.38;7.90;;;;;;;;;;5034683;28;20021;-74
2022/11/07 03:12:34;;;;;;;11.25;8.38;;;;;;;;;;5034457;28;20025;-74
2022/11/07 03:15:00;;;;;;;8.98;7.85;;;;;;;;;;5034985;28;20044;-74
2022/11/07 03:17:25;;;;;;;9.95;7.72;;;;;;;;;;5033343;28;20108;-74
2022/11/07 03:19:51;;;;;;;9.77;7.45;;;;;;;;;;5033244;28;20029;-74
2022/11/07 03:22:16;;;;;;;11.45;8.20;;;;;;;;;;5032624;28;20132;-74
2022/11/07 03:24:41;;;;;;;11.65;7.82;;;;;;;;;;5031285;28;20040;-75
2022/11/07 03:27:08;;;;;;;9.07;8.10;;;;;;;;;;5034473;28;20373;-75
2022/11/07 03:29:33;;;;;;;11.65;7.70;;;;;;;;;;5034203;28;20042;-75
2022/11/07 03:31:59;;;;;;;10.20;7.85;;;;;;;;;;5034781;28;20187;-76
2022/11/07 03:34:24;;;;;;;8.93;7.72;;;;;;;;;;5033163;28;20033;-76
2022/11/07 03:36:49;;;;;;;9.35;6.90;;;;;;;;;;5016743;28;20032;-74
2022/11/07 03:39:15;;;;;;;10.93;7.60;;;;;;;;;;5034292;28;20029;-74
2022/11/07 03:41:40;;;;;;;9.15;7.40;;;;;;;;;;5032873;28;20729;-74
2022/11/07 03:44:06;;;;;;;9.32;7.43;;;;;;;;;;5033728;28;20037;-74
2022/11/07 03:46:31;;;;;;;9.68;7.60;;;;;;;;;;5033310;28;20100;-74
2022/11/07 03:48:56;;;;;;;7.85;6.75;;;;;;;;;;5033295;28;20033;-75
2022/11/07 03:51:22;;;;;;;9.80;7.82;;;;;;;;;;5033150;28;20022;-74
2022/11/07 03:53:47;;;;;;;9.75;7.53;;;;;;;;;;5034533;28;20481;-74
2022/11/07 03:56:14;;;;;;;11.40;7.45;;;;;;;;;;5034622;28;20029;-74
2022/11/07 03:58:40;;;;;;;8.30;7.03;;;;;;;;;;5034169;28;20025;-75
2022/11/07 04:01:05;;;;;;;11.02;8.05;;;;;;;;;;5031884;28;20072;-76
2022/11/07 04:03:31;;;;;;;9.23;7.63;;;;;;;;;;5032654;28;20040;-76
2022/11/07 04:05:56;;;;;;;9.43;7.50;;;;;;;;;;5032295;28;20034;-76
2022/11/07 04:08:22;;;;;;;10.13;7.22;;;;;;;;;;5016717;28;20033;-75
2022/11/07 04:10:47;;;;;;;8.57;7.20;;;;;;;;;;5033789;28;20033;-74
2022/11/07 04:18:41;;;;;;;8.95;7.00;;;;;;;;;;5033572;28;20045;-74
2022/11/07 04:21:06;;;;;;;10.32;7.57;;;;;;;;;;5033790;28;20104;-73
2022/11/07 04:23:31;;;;;;;10.10;7.63;;;;;;;;;;5031620;28;20037;-72
2022/11/07 04:28:41;;;;;;;10.20;7.35;;;;;;;;;;5033371;28;20046;-73
2022/11/07 04:31:06;;;;;;;10.93;7.47;;;;;;;;;;5032337;28;20025;-75
2022/11/07 04:33:32;;;;;;;11.30;7.63;;;;;;;;;;5033220;28;20025;-74
2022/11/07 04:35:57;;;;;;;11.18;8.20;;;;;;;;;;5033137;28;20025;-73
2022/11/07 04:38:23;;;;;;;10.85;7.35;;;;;;;;;;5030354;28;20121;-74
2022/11/07 04:40:52;;;;;;;10.02;7.78;;;;;;;;;;5033370;28;20017;-74
2022/11/07 04:43:17;;;;;;;9.90;7.65;;;;;;;;;;5031492;28;20053;-74
2022/11/07 04:45:44;;;;;;;9.40;7.30;;;;;;;;;;5030901;28;20034;-74
2022/11/07 04:48:11;;;;;;;9.77;7.40;;;;;;;;;;5014304;28;20033;-74
2022/11/07 04:50:36;;;;;;;9.82;7.43;;;;;;;;;;5032606;28;20039;-74
2022/11/07 04:53:02;;;;;;;11.25;8.05;;;;;;;;;;5032460;28;20465;-74
2022/11/07 04:55:29;;;;;;;9.57;7.15;;;;;;;;;;5032537;28;20111;-74
2022/11/07 04:57:56;;;;;;;10.35;8.07;;;;;;;;;;5014597;28;20116;-74
2022/11/07 05:00:21;;;;;;;9.23;7.53;;;;;;;;;;5032300;28;20018;-76
2022/11/07 05:02:47;;;;;;;9.82;7.80;;;;;;;;;;5014767;28;20545;-76
2022/11/07 05:05:13;;;;;;;10.15;8.00;;;;;;;;;;5032825;28;20112;-76
2022/11/07 05:07:39;;;;;;;9.70;7.70;;;;;;;;;;5031269;28;20029;-76
2022/11/07 05:10:05;;;;;;;10.73;7.43;;;;;;;;;;5032964;28;20457;-76
2022/11/07 05:12:30;;;;;;;9.50;7.88;;;;;;;;;;5032400;28;20030;-74
2022/11/07 05:14:57;;;;;;;12.38;8.05;;;;;;;;;;5030708;28;20075;-74
2022/11/07 05:17:22;;;;;;;10.15;7.22;;;;;;;;;;5031455;28;20048;-75
2022/11/07 05:19:49;;;;;;;8.48;7.05;;;;;;;;;;5031562;28;20439;-74
2022/11/07 05:25:00;;;;;;;10.15;7.65;;;;;;;;;;5032373;28;20042;-74
2022/11/07 05:27:26;;;;;;;10.90;7.57;;;;;;;;;;5029386;28;20010;-74
2022/11/07 05:29:52;;;;;;;8.80;7.07;;;;;;;;;;5035625;28;20096;-74
2022/11/07 05:32:17;;;;;;;11.15;7.32;;;;;;;;;;5035297;28;20389;-75
2022/11/07 05:34:43;;;;;;;11.98;7.70;;;;;;;;;;5036083;28;20053;-75
2022/11/07 05:37:09;;;;;;;8.77;7.18;;;;;;;;;;5034838;28;20029;-75
2022/11/07 05:39:35;;;;;;;10.93;7.60;;;;;;;;;;5034422;28;20025;-75
2022/11/07 05:42:01;;;;;;;11.07;7.68;;;;;;;;;;5034574;28;20021;-75
2022/11/07 05:44:26;;;;;;;11.73;8.05;;;;;;;;;;5035773;28;20041;-75
2022/11/07 05:46:52;;;;;;;10.38;8.32;;;;;;;;;;5035861;28;20040;-76
2022/11/07 05:49:17;;;;;;;10.00;7.72;;;;;;;;;;5035964;28;20032;-76
2022/11/07 05:51:45;;;;;;;12.57;9.50;;;;;;;;;;5035805;28;20469;-75
2022/11/07 05:54:10;;;;;;;13.20;9.50;;;;;;;;;;5035777;28;20033;-75
2022/11/07 05:56:36;;;;;;;12.60;8.70;;;;;;;;;;5034158;28;20037;-74
2022/11/07 05:59:03;;;;;;;9.70;8.25;;;;;;;;;;5035995;28;20112;-75
2022/11/07 06:01:28;;;;;;;11.32;7.63;;;;;;;;;;5036050;28;20057;-75
2022/11/07 06:03:53;;;;;;;10.10;7.75;;;;;;;;;;5035119;28;20069;-74
2022/11/07 06:06:19;;;;;;;12.43;8.65;;;;;;;;;;5036391;28;20386;-76
2022/11/07 06:08:44;;;;;;;12.27;8.15;;;;;;;;;;5036479;28;20100;-75
2022/11/07 06:11:10;;;;;;;10.52;8.20;;;;;;;;;;5035637;28;20016;-75
2022/11/07 06:13:35;;;;;;;9.77;7.63;;;;;;;;;;5034103;28;20458;-74
2022/11/07 06:16:00;;;;;;;9.98;7.30;;;;;;;;;;5034745;28;20029;-74
2022/11/07 06:18:26;;;;;;;11.32;7.13;;;;;;;;;;5035470;28;20032;-74
2022/11/07 06:20:51;;;;;;;8.73;7.47;;;;;;;;;;5034856;28;20022;-73
2022/11/07 06:23:17;;;;;;;11.52;7.35;;;;;;;;;;5031959;28;20084;-73
2022/11/07 06:25:42;;;;;;;9.57;7.38;;;;;;;;;;5030653;28;20033;-74
2022/11/07 06:28:09;;;;;;;10.80;8.18;;;;;;;;;;5031824;28;20064;-73
2022/11/07 06:30:35;;;;;;;12.40;8.07;;;;;;;;;;5031970;28;20061;-75
2022/11/07 06:33:01;;;;;;;13.10;8.93;;;;;;;;;;5031724;28;20378;-75
2022/11/07 06:35:30;;;;;;;14.88;10.40;;;;;;;;;;5031564;28;20056;-75
2022/11/07 06:37:59;;;;;;;14.43;9.93;;;;;;;;;;5033896;28;20481;-75
2022/11/07 06:40:24;;;;;;;17.08;11.38;;;;;;;;;;5030458;28;20029;-75
2022/11/07 06:42:50;;;;;;;15.90;10.80;;;;;;;;;;5031077;28;20041;-75
2022/11/07 06:45:15;;;;;;;14.90;9.80;;;;;;;;;;5032202;28;20018;-75
2022/11/07 06:47:40;;;;;;;17.73;10.45;;;;;;;;;;5033151;28;20366;-75
2022/11/07 06:50:07;;;;;;;15.55;11.20;;;;;;;;;;5032361;28;20750;-75
2022/11/07 06:52:32;;;;;;;17.02;11.15;;;;;;;;;;5032867;28;20064;-74
2022/11/07 06:54:57;;;;;;;16.58;10.60;;;;;;;;;;5031416;28;20099;-75
2022/11/07 06:57:23;;;;;;;17.75;11.20;;;;;;;;;;5030079;28;20056;-75
2022/11/07 06:59:48;;;;;;;16.60;11.13;;;;;;;;;;5031810;28;20128;-75
2022/11/07 07:02:13;;;;;;;15.70;10.38;;;;;;;;;;5014330;28;20021;-76
2022/11/07 07:04:39;;;;;;;16.88;10.98;;;;;;;;;;5033356;28;20017;-77
2022/11/07 07:07:04;;;;;;;16.73;10.60;;;;;;;;;;5034024;28;20041;-76
2022/11/07 07:09:30;;;;;;;17.02;10.93;;;;;;;;;;5034811;28;20017;-76
2022/11/07 07:11:55;;;;;;;13.65;10.98;;;;;;;;;;5035120;28;20025;-75
2022/11/07 07:14:20;;;;;;;16.65;12.35;;;;;;;;;;5017072;28;20045;-76
2022/11/07 07:16:46;;;;;;;18.02;12.20;;;;;;;;;;5033871;28;20041;-76
2022/11/07 07:19:12;;;;;;;16.42;11.30;;;;;;;;;;5026859;28;20045;-74
2022/11/07 07:21:37;;;;;;;26.90;15.88;;;;;;;;;;5013531;28;20033;-77
2022/11/07 07:24:03;;;;;;;34.65;18.13;;;;;;;;;;5014389;28;20034;-77
2022/11/07 07:26:28;;;;;;;31.70;18.40;;;;;;;;;;5013870;28;20390;-76
2022/11/07 07:28:54;;;;;;;31.95;18.33;;;;;;;;;;5013102;28;20042;-77
2022/11/07 07:31:21;;;;;;;36.63;20.27;;;;;;;;;;5012230;28;20390;-77
2022/11/07 07:33:47;;;;;;;32.83;18.08;;;;;;;;;;5013991;28;20021;-77
2022/11/07 07:36:13;;;;;;;35.22;18.83;;;;;;;;;;5012761;28;20450;-77
2022/11/07 07:38:38;;;;;;;23.48;13.57;;;;;;;;;;5014526;28;20029;-77
2022/11/07 07:41:04;;;;;;;15.18;11.80;;;;;;;;;;5014083;28;20025;-77
2022/11/07 07:43:29;;;;;;;17.48;11.35;;;;;;;;;;5012271;28;20045;-77
2022/11/07 07:46:03;;;;;;;16.73;11.45;;;;;;;;;;5013511;28;20487;-77
2022/11/07 07:48:30;;;;;;;17.17;12.20;;;;;;;;;;5013681;28;20463;-77
2022/11/07 07:50:56;;;;;;;17.65;11.82;;;;;;;;;;5012819;28;20045;-71
2022/11/07 07:53:21;;;;;;;24.70;13.00;;;;;;;;;;5013593;28;20057;-71
2022/11/07 07:55:46;;;;;;;16.42;11.35;;;;;;;;;;5012283;28;20381;-71
2022/11/07 07:58:12;;;;;;;17.20;13.15;;;;;;;;;;5013333;28;20038;-71
2022/11/07 08:00:38;;;;;;;20.33;13.15;;;;;;;;;;5013722;28;20391;-71
2022/11/07 08:03:05;;;;;;;23.50;13.95;;;;;;;;;;5012932;28;20037;-71
2022/11/07 08:05:30;;;;;;;16.35;11.73;;;;;;;;;;5011863;28;20026;-71
2022/11/07 08:07:55;;;;;;;17.95;12.88;;;;;;;;;;5010120;28;20060;-71
2022/11/07 08:10:21;;;;;;;15.80;10.85;;;;;;;;;;5009850;28;20516;-71
2022/11/07 08:12:47;;;;;;;20.17;12.73;;;;;;;;;;5008448;28;20588;-71
2022/11/07 08:15:13;;;;;;;17.08;11.32;;;;;;;;;;5009218;28;20021;-71
2022/11/07 08:17:39;;;;;;;20.23;11.95;;;;;;;;;;5009887;28;20374;-71
2022/11/07 08:20:04;;;;;;;14.35;8.70;;;;;;;;;;5010119;28;20045;-71
2022/11/07 08:22:30;;;;;;;11.23;7.90;;;;;;;;;;5010001;28;20073;-71
2022/11/07 08:24:55;;;;;;;11.45;8.20;;;;;;;;;;5009775;28;20076;-71
2022/11/07 08:27:20;;;;;;;11.70;7.85;;;;;;;;;;5010154;28;20025;-71
2022/11/07 08:29:45;;;;;;;9.43;6.78;;;;;;;;;;5009676;28;20489;-71
2022/11/07 08:32:11;;;;;;;10.30;7.18;;;;;;;;;;5010309;28;20045;-71
2022/11/07 08:34:37;;;;;;;12.13;7.30;;;;;;;;;;5009506;28;20456;-71
2022/11/07 08:37:02;;;;;;;13.70;8.00;;;;;;;;;;5011404;28;20493;-71
2022/11/07 08:39:28;;;;;;;11.05;7.65;;;;;;;;;;5010817;28;20516;-71
2022/11/07 08:41:53;;;;;;;10.52;6.60;;;;;;;;;;5010556;28;20037;-71
2022/11/07 08:44:18;;;;;;;11.68;7.47;;;;;;;;;;5010503;28;20466;-71
2022/11/07 08:46:44;;;;;;;9.70;7.00;;;;;;;;;;5010479;28;20556;-71
2022/11/07 08:49:09;;;;;;;8.00;6.18;;;;;;;;;;5010155;28;20454;-71
2022/11/07 08:51:34;;;;;;;8.80;6.75;;;;;;;;;;4992865;28;20026;-71
2022/11/07 08:54:00;;;;;;;9.15;6.25;;;;;;;;;;5010458;28;20409;-71
2022/11/07 08:56:25;;;;;;;8.90;5.63;;;;;;;;;;5010413;28;20040;-71
2022/11/07 08:58:50;;;;;;;7.50;5.65;;;;;;;;;;5010990;28;20022;-71
2022/11/07 09:01:16;;;;;;;6.95;5.30;;;;;;;;;;5010183;28;20474;-71
2022/11/07 09:03:41;;;;;;;8.88;5.97;;;;;;;;;;5008991;28;20025;-71
2022/11/07 09:06:07;;;;;;;7.07;6.10;;;;;;;;;;5010387;28;20038;-71
2022/11/07 09:08:32;;;;;;;7.75;5.57;;;;;;;;;;5011065;28;20026;-71
2022/11/07 09:11:01;;;;;;;7.43;4.82;;;;;;;;;;5010077;28;20054;-71
2022/11/07 09:13:28;;;;;;;5.90;4.35;;;;;;;;;;5010105;28;20218;-71
2022/11/07 09:15:58;;;;;;;4.88;4.10;;;;;;;;;;5010365;28;20486;-77
2022/11/07 09:18:24;;;;;;;7.25;5.00;;;;;;;;;;5010614;28;20042;-71
2022/11/07 09:20:50;;;;;;;4.40;3.97;;;;;;;;;;5011146;28;20102;-71
2022/11/07 09:23:15;;;;;;;5.28;4.22;;;;;;;;;;5010194;28;20054;-71
2022/11/07 09:25:40;;;;;;;6.75;4.18;;;;;;;;;;5010059;28;20029;-71
2022/11/07 09:28:06;;;;;;;5.80;3.63;;;;;;;;;;5008923;28;20026;-77
2022/11/07 09:30:35;;;;;;;4.28;3.50;;;;;;;;;;5010210;28;20124;-77
2022/11/07 09:33:00;;;;;;;4.25;3.38;;;;;;;;;;5010747;28;20120;-77
2022/11/07 09:35:26;;;;;;;5.32;4.03;;;;;;;;;;5010482;28;20104;-77
2022/11/07 09:37:52;;;;;;;3.10;2.80;;;;;;;;;;5009982;28;20045;-77
2022/11/07 09:40:18;;;;;;;4.35;3.47;;;;;;;;;;5008581;28;20037;-77
2022/11/07 09:43:13;;;;;;;5.07;3.78;;;;;;;;;;5008519;28;20037;-77
2022/11/07 09:45:49;;;;;;;4.68;3.72;;;;;;;;;;5010228;28;20049;-77
2022/11/07 09:48:18;;;;;;;4.25;3.85;;;;;;;;;;5009908;28;20030;-77
2022/11/07 09:50:48;;;;;;;6.40;4.10;;;;;;;;;;5009688;28;20199;-77
2022/11/07 09:53:17;;;;;;;4.93;3.28;;;;;;;;;;5009806;28;20041;-77
2022/11/07 09:55:48;;;;;;;6.25;3.25;;;;;;;;;;5009975;28;20084;-77
2022/11/07 09:58:19;;;;;;;4.03;3.67;;;;;;;;;;5009948;28;20100;-77
2022/11/07 10:00:45;;;;;;;6.97;3.35;;;;;;;;;;5009662;28;20038;-77
2022/11/07 10:03:10;;;;;;;5.05;3.65;;;;;;;;;;5009530;28;20040;-77
2022/11/07 10:06:02;;;;;;;4.45;3.58;;;;;;;;;;5009651;28;20363;-77
2022/11/07 10:08:42;;;;;;;7.80;3.95;;;;;;;;;;5004379;28;20383;-77
2022/11/07 10:11:12;;;;;;;3.72;3.15;;;;;;;;;;5009536;28;20064;-77
2022/11/07 10:13:38;;;;;;;;;;;;;;;;;;5010406;28;20038;-77
2022/11/07 10:16:22;;;;;;;5.17;3.63;;;;;;;;;;5013369;28;19916;-77
2022/11/07 10:18:59;;;;;;;4.22;3.83;;;;;;;;;;5011990;28;20046;-76
2022/11/07 10:21:28;;;;;;;3.72;3.35;;;;;;;;;;5013337;28;20022;-77
2022/11/07 10:24:25;;;;;;;5.22;3.50;;;;;;;;;;5013231;28;20029;-77
2022/11/07 10:26:51;;;;;;;3.28;2.88;;;;;;;;;;4985186;28;20042;-76
2022/11/07 10:29:17;;;;;;;4.38;3.20;;;;;;;;;;5016934;28;20137;-76
2022/11/07 10:31:49;;;;;;;4.35;3.75;;;;;;;;;;5013421;28;20044;-77
2022/11/07 10:34:19;;;;;;;5.45;3.50;;;;;;;;;;5013639;28;20026;-77
2022/11/07 10:36:44;;;;;;;5.18;3.85;;;;;;;;;;5012090;28;20083;-77
2022/11/07 10:39:12;;;;;;;5.25;3.78;;;;;;;;;;5013149;28;20022;-77
2022/11/07 10:41:40;;;;;;;9.75;4.15;;;;;;;;;;5011380;28;20034;-77
2022/11/07 10:44:09;;;;;;;6.47;3.67;;;;;;;;;;5012746;28;20021;-77
2022/11/07 10:46:38;;;;;;;6.00;4.25;;;;;;;;;;5012872;28;20116;-77
2022/11/07 10:49:16;;;;;;;6.18;4.75;;;;;;;;;;5012780;28;20369;-77
2022/11/07 10:51:41;;;;;;;5.45;3.67;;;;;;;;;;5011326;28;20041;-77
2022/11/07 10:54:17;;;;;;;6.55;4.28;;;;;;;;;;5011342;28;20476;-77
2022/11/07 10:56:47;;;;;;;8.55;4.35;;;;;;;;;;5012665;28;20030;-77
2022/11/07 10:59:19;;;;;;;4.70;4.03;;;;;;;;;;5011315;28;20030;-77
2022/11/07 11:01:48;;;;;;;9.13;4.07;;;;;;;;;;5010983;28;20026;-77
2022/11/07 11:04:21;;;;;;;8.10;5.43;;;;;;;;;;5012186;28;20026;-77
2022/11/07 11:06:55;;;;;;;10.38;6.35;;;;;;;;;;5012393;28;20029;-77
2022/11/07 11:09:21;;;;;;;9.73;5.47;;;;;;;;;;5012639;28;20033;-77
2022/11/07 11:11:49;;;;;;;5.13;4.30;;;;;;;;;;5011938;28;20022;-77
2022/11/07 11:14:17;;;;;;;8.93;4.35;;;;;;;;;;5012162;28;20038;-77
2022/11/07 11:16:44;;;;;;;6.88;5.18;;;;;;;;;;5012112;28;20044;-77
2022/11/07 11:19:18;;;;;;;8.50;5.15;;;;;;;;;;5011320;28;20470;-77
2022/11/07 11:21:45;;;;;;;4.45;4.03;;;;;;;;;;4994719;28;20034;-76
2022/11/07 11:24:16;;;;;;;6.30;4.07;;;;;;;;;;5012257;28;20024;-77
2022/11/07 11:26:42;;;;;;;5.38;4.03;;;;;;;;;;5010458;28;20632;-76
2022/11/07 11:29:11;;;;;;;5.50;3.58;;;;;;;;;;5009552;28;20459;-77
2022/11/07 11:31:44;;;;;;;4.90;3.85;;;;;;;;;;5012141;28;20037;-77
2022/11/07 11:34:23;;;;;;;5.18;3.58;;;;;;;;;;5011957;28;20041;-76
2022/11/07 11:37:14;;;;;;;6.55;4.15;;;;;;;;;;5011965;28;20060;-77
2022/11/07 11:39:44;;;;;;;4.32;3.45;;;;;;;;;;5008808;28;20046;-76
2022/11/07 11:42:18;;;;;;;5.53;3.83;;;;;;;;;;5011490;28;20562;-77
2022/11/07 11:44:44;;;;;;;5.32;3.47;;;;;;;;;;5011756;28;20037;-76
2022/11/07 11:47:13;;;;;;;5.10;3.97;;;;;;;;;;5012058;28;20018;-76
2022/11/07 11:49:44;;;;;;;7.28;4.07;;;;;;;;;;5010150;28;20038;-76
2022/11/07 11:52:18;;;;;;;5.60;3.78;;;;;;;;;;5011386;28;20041;-76
2022/11/07 11:54:44;;;;;;;8.30;3.85;;;;;;;;;;5011272;28;20037;-76
2022/11/07 11:57:13;;;;;;;7.50;4.30;;;;;;;;;;5011479;28;20033;-71
2022/11/07 11:59:38;;;;;;;4.35;3.33;;;;;;;;;;5010333;28;20033;-70
2022/11/07 12:02:16;;;;;;;6.75;3.90;;;;;;;;;;5010649;28;20022;-70
2022/11/07 12:04:56;;;;;;;9.00;5.38;;;;;;;;;;5012606;28;20029;-70
2022/11/07 12:07:35;;;;;;;6.05;3.85;;;;;;;;;;5010393;28;20037;-70
2022/11/07 12:10:26;;;;;;;6.85;4.00;;;;;;;;;;5012261;28;20053;-76
2022/11/07 12:12:54;;;;;;;6.03;4.10;;;;;;;;;;4983820;28;20041;-70
2022/11/07 12:15:32;;;;;;;5.05;3.78;;;;;;;;;;5010957;28;20473;-70
2022/11/07 12:17:58;;;;;;;4.90;3.70;;;;;;;;;;5011382;28;20398;-70
2022/11/07 12:20:24;;;;;;;4.50;3.60;;;;;;;;;;5009475;28;20021;-71
2022/11/07 12:22:55;;;;;;;4.95;4.15;;;;;;;;;;5009468;28;20042;-70
2022/11/07 12:25:20;;;;;;;5.13;3.63;;;;;;;;;;5010889;28;20037;-70
2022/11/07 12:27:46;;;;;;;5.45;3.63;;;;;;;;;;5009515;28;20053;-70
2022/11/07 12:30:26;;;;;;;5.05;3.83;;;;;;;;;;5009372;28;20041;-70
2022/11/07 12:33:05;;;;;;;5.60;3.95;;;;;;;;;;5008998;28;20036;-70
2022/11/07 12:35:30;;;;;;;3.33;3.03;;;;;;;;;;5009598;28;20445;-76
2022/11/07 12:38:02;;;;;;;5.35;3.15;;;;;;;;;;5009921;28;20038;-76
2022/11/07 12:40:29;;;;;;;4.55;3.40;;;;;;;;;;5009644;28;20044;-76
2022/11/07 12:42:54;;;;;;;4.53;3.65;;;;;;;;;;5009615;28;20117;-77
2022/11/07 12:45:20;;;;;;;6.07;3.08;;;;;;;;;;5011548;28;20116;-76
2022/11/07 12:48:17;;;;;;;4.13;3.70;;;;;;;;;;5012332;28;20125;-76
2022/11/07 12:50:50;;;;;;;3.17;2.65;;;;;;;;;;4976962;28;20045;-74
2022/11/07 12:53:24;;;;;;;6.40;4.13;;;;;;;;;;5012542;28;20045;-76
2022/11/07 12:56:09;;;;;;;5.80;3.90;;;;;;;;;;5011536;28;20048;-70
2022/11/07 12:58:36;;;;;;;6.28;3.97;;;;;;;;;;5012281;28;20026;-70
2022/11/07 13:01:02;;;;;;;7.22;4.30;;;;;;;;;;5012146;28;20025;-70
2022/11/07 13:03:44;;;;;;;4.50;3.67;;;;;;;;;;5010264;28;20038;-70
2022/11/07 13:06:21;;;;;;;8.30;3.65;;;;;;;;;;5010188;28;20061;-70
2022/11/07 13:08:58;;;;;;;6.00;3.17;;;;;;;;;;5009849;28;20458;-70
2022/11/07 13:11:34;;;;;;;3.28;2.95;;;;;;;;;;5009373;28;20041;-70
2022/11/07 13:14:15;;;;;;;4.07;3.22;;;;;;;;;;5009392;28;20092;-70
2022/11/07 13:17:03;;;;;;;6.85;3.88;;;;;;;;;;5009400;28;20064;-76
2022/11/07 13:19:32;;;;;;;4.80;3.55;;;;;;;;;;5009541;28;20050;-77
2022/11/07 13:22:02;;;;;;;5.30;3.42;;;;;;;;;;5007508;28;20030;-77
2022/11/07 13:24:29;;;;;;;4.57;3.25;;;;;;;;;;5009313;28;20034;-76
2022/11/07 13:26:55;;;;;;;3.67;3.35;;;;;;;;;;5009547;28;20505;-76
2022/11/07 13:29:22;;;;;;;5.65;3.75;;;;;;;;;;5007610;28;20048;-76
2022/11/07 13:31:52;;;;;;;6.55;4.00;;;;;;;;;;5008833;28;20029;-76
2022/11/07 13:34:17;;;;;;;6.28;3.42;;;;;;;;;;5008971;28;20034;-76
2022/11/07 13:36:44;;;;;;;3.80;3.05;;;;;;;;;;4991567;28;20029;-76
2022/11/07 13:39:10;;;;;;;4.13;3.30;;;;;;;;;;5010353;28;20033;-77
2022/11/07 13:41:36;;;;;;;5.80;3.78;;;;;;;;;;5007270;28;20029;-77
2022/11/07 13:44:03;;;;;;;3.95;3.50;;;;;;;;;;5008677;28;20040;-76
2022/11/07 13:46:28;;;;;;;6.80;3.08;;;;;;;;;;5008897;28;20104;-76
2022/11/07 13:48:56;;;;;;;4.82;3.45;;;;;;;;;;5009298;28;20148;-77
2022/11/07 13:51:29;;;;;;;5.00;3.67;;;;;;;;;;5013560;28;20101;-76
2022/11/07 13:54:13;;;;;;;7.13;4.32;;;;;;;;;;5014717;28;20185;-76
2022/11/07 13:56:40;;;;;;;5.43;4.38;;;;;;;;;;5013032;28;20065;-76
2022/11/07 13:59:10;;;;;;;9.75;4.40;;;;;;;;;;5013537;28;20045;-77
2022/11/07 14:01:43;;;;;;;8.25;4.40;;;;;;;;;;5012605;28;20101;-76
2022/11/07 14:04:13;;;;;;;6.75;4.40;;;;;;;;;;5011213;28;20073;-76
2022/11/07 14:06:39;;;;;;;6.60;3.58;;;;;;;;;;5011019;28;20393;-76
2022/11/07 14:09:04;;;;;;;6.07;3.88;;;;;;;;;;5009502;28;20042;-75
2022/11/07 14:11:33;;;;;;;6.35;4.22;;;;;;;;;;5011336;28;20348;-75
2022/11/07 14:13:59;;;;;;;4.35;3.70;;;;;;;;;;5011599;28;20030;-75
2022/11/07 14:16:25;;;;;;;6.32;4.80;;;;;;;;;;5011954;28;20496;-75
2022/11/07 14:19:03;;;;;;;5.25;3.45;;;;;;;;;;5011244;28;20130;-75
2022/11/07 14:21:29;;;;;;;5.53;3.70;;;;;;;;;;5010521;28;20486;-75
2022/11/07 14:23:55;;;;;;;6.57;3.63;;;;;;;;;;5012182;28;20033;-75
2022/11/07 14:26:22;;;;;;;6.53;4.32;;;;;;;;;;5010579;28;20030;-74
2022/11/07 14:28:48;;;;;;;6.15;4.70;;;;;;;;;;5011916;28;20049;-75
2022/11/07 14:31:15;;;;;;;5.13;4.55;;;;;;;;;;5010869;28;20091;-75
2022/11/07 14:33:46;;;;;;;5.65;4.10;;;;;;;;;;5012217;28;20030;-75
2022/11/07 14:36:12;;;;;;;5.78;4.78;;;;;;;;;;5010568;28;20080;-76
2022/11/07 14:38:43;;;;;;;7.32;4.53;;;;;;;;;;5011921;28;20034;-75
2022/11/07 14:41:10;;;;;;;6.53;4.72;;;;;;;;;;5011993;28;20110;-76
2022/11/07 14:43:36;;;;;;;5.68;4.45;;;;;;;;;;5012033;28;20025;-75
2022/11/07 14:46:03;;;;;;;7.40;5.18;;;;;;;;;;5012611;28;20073;-75
2022/11/07 14:48:29;;;;;;;5.57;4.15;;;;;;;;;;5012171;28;20060;-76
2022/11/07 14:50:55;;;;;;;4.78;4.32;;;;;;;;;;5012366;28;20456;-76